sensor_id;sensor_type;location;lat;lon;timestamp;pressure;altitude;pressure_sealevel;temperature;humidity
77517;BME280;68414;53.946;27.634;2023-04-08T13:03:21;99619.453125;;;19.290001;43.577148
77517;BME280;68414;53.946;27.634;2023-04-08T13:04:21;99623.250000;;;18.889999;44.272461
77517;BME280;68414;53.946;27.634;2023-04-08T13:05:21;99619.375000;;;18.430000;45.237305
77517;BME280;68414;53.946;27.634;2023-04-08T13:06:21;99620.718750;;;18.120001;46.593750
77517;BME280;68414;53.946;27.634;2023-04-08T13:07:21;99617.773438;;;17.940001;46.852539
77517;BME280;68414;53.946;27.634;2023-04-08T13:08:21;99617.585938;;;17.730000;46.929688
77517;BME280;68414;53.946;27.634;2023-04-08T13:09:21;99618.343750;;;17.700001;47.559570
77517;BME280;68414;53.946;27.634;2023-04-08T13:10:21;99610.367188;;;17.690001;47.590820
77517;BME280;68414;53.946;27.634;2023-04-08T13:11:21;99613.101562;;;17.650000;47.962891
77517;BME280;68414;53.946;27.634;2023-04-08T13:12:21;99611.773438;;;17.520000;48.746094
77517;BME280;68414;53.946;27.634;2023-04-08T13:13:21;99618.312500;;;17.670000;49.260742
77517;BME280;68414;53.946;27.634;2023-04-08T13:14:21;99607.937500;;;17.670000;48.308594
77517;BME280;68414;53.946;27.634;2023-04-08T13:15:21;99610.312500;;;17.650000;48.517578
77517;BME280;68414;53.946;27.634;2023-04-08T13:16:21;99611.460938;;;17.610001;48.434570
77517;BME280;68414;53.946;27.634;2023-04-08T13:17:21;99608.671875;;;17.610001;47.858398
77517;BME280;68414;53.946;27.634;2023-04-08T13:18:21;99605.523438;;;17.620001;48.380859
77517;BME280;68414;53.946;27.634;2023-04-08T13:19:21;99607.476562;;;17.580000;48.088867
77517;BME280;68414;53.946;27.634;2023-04-08T13:20:21;99606.195312;;;17.520000;48.181641
77517;BME280;68414;53.946;27.634;2023-04-08T13:21:21;99603.859375;;;17.540001;47.818359
77517;BME280;68414;53.946;27.634;2023-04-08T13:22:21;99601.484375;;;17.559999;49.250000
77517;BME280;68414;53.946;27.634;2023-04-08T13:23:21;99603.906250;;;17.610001;48.756836
77517;BME280;68414;53.946;27.634;2023-04-08T13:24:21;99603.171875;;;17.680000;49.173828
77517;BME280;68414;53.946;27.634;2023-04-08T13:25:21;99597.523438;;;17.610001;49.531250
77517;BME280;68414;53.946;27.634;2023-04-08T13:26:21;99599.140625;;;17.620001;48.646484
77517;BME280;68414;53.946;27.634;2023-04-08T13:27:21;99595.625000;;;17.680000;48.541992
77517;BME280;68414;53.946;27.634;2023-04-08T13:28:21;99595.625000;;;17.680000;47.356445
77517;BME280;68414;53.946;27.634;2023-04-08T13:29:21;99600.804688;;;17.700001;47.524414
77517;BME280;68414;53.946;27.634;2023-04-08T13:30:21;99595.210938;;;17.660000;46.401367
77517;BME280;68414;53.946;27.634;2023-04-08T13:31:21;99598.390625;;;17.650000;46.521484
77517;BME280;68414;53.946;27.634;2023-04-08T13:32:21;99590.359375;;;17.600000;46.593750
77517;BME280;68414;53.946;27.634;2023-04-08T13:33:21;99598.703125;;;17.559999;46.213867
77517;BME280;68414;53.946;27.634;2023-04-08T13:34:21;99596.671875;;;17.530001;46.199219
77517;BME280;68414;53.946;27.634;2023-04-08T13:35:21;99591.093750;;;17.530001;47.362305
77517;BME280;68414;53.946;27.634;2023-04-08T13:36:21;99589.421875;;;17.490000;46.194336
77517;BME280;68414;53.946;27.634;2023-04-08T13:37:21;99591.796875;;;17.469999;45.549805
77517;BME280;68414;53.946;27.634;2023-04-08T13:38:21;99595.750000;;;17.450001;45.603516
77517;BME280;68414;53.946;27.634;2023-04-08T13:39:21;99597.843750;;;17.520000;45.577148
77517;BME280;68414;53.946;27.634;2023-04-08T13:40:21;99591.796875;;;17.469999;45.682617
77517;BME280;68414;53.946;27.634;2023-04-08T13:41:21;99595.046875;;;17.520000;46.109375
77517;BME280;68414;53.946;27.634;2023-04-08T13:42:21;99586.500000;;;17.340000;45.048828
77517;BME280;68414;53.946;27.634;2023-04-08T13:43:21;99588.390625;;;17.270000;45.075195
77517;BME280;68414;53.946;27.634;2023-04-08T13:44:21;99593.125000;;;17.230000;45.314453
77517;BME280;68414;53.946;27.634;2023-04-08T13:45:21;99590.757812;;;17.250000;45.117188
77517;BME280;68414;53.946;27.634;2023-04-08T13:46:21;99592.289062;;;17.190001;45.132812
77517;BME280;68414;53.946;27.634;2023-04-08T13:47:21;99586.625000;;;17.120001;45.325195
77517;BME280;68414;53.946;27.634;2023-04-08T13:48:21;99585.789062;;;17.080000;45.054688
77517;BME280;68414;53.946;27.634;2023-04-08T13:49:21;99582.671875;;;17.129999;45.038086
77517;BME280;68414;53.946;27.634;2023-04-08T13:50:21;99586.804688;;;17.260000;44.796875
77517;BME280;68414;53.946;27.634;2023-04-08T13:51:21;99586.000000;;;17.250000;44.752930
77517;BME280;68414;53.946;27.634;2023-04-08T13:52:21;99580.453125;;;17.290001;45.110352
77517;BME280;68414;53.946;27.634;2023-04-08T13:53:21;99580.953125;;;17.379999;45.672852
77517;BME280;68414;53.946;27.634;2023-04-08T13:54:21;99582.203125;;;17.440001;46.599609
77517;BME280;68414;53.946;27.634;2023-04-08T13:55:21;99580.250000;;;17.480000;47.523438
77517;BME280;68414;53.946;27.634;2023-04-08T13:56:21;99586.351562;;;17.570000;47.610352
77517;BME280;68414;53.946;27.634;2023-04-08T13:57:21;99579.953125;;;17.530001;47.517578
77517;BME280;68414;53.946;27.634;2023-04-08T13:58:21;99584.906250;;;17.370001;47.833008
77517;BME280;68414;53.946;27.634;2023-04-08T13:59:21;99584.132812;;;17.360001;48.396484
77517;BME280;68414;53.946;27.634;2023-04-08T14:00:21;99581.289062;;;17.330000;48.337891
77517;BME280;68414;53.946;27.634;2023-04-08T14:01:21;99580.453125;;;17.290001;47.957031
77517;BME280;68414;53.946;27.634;2023-04-08T14:02:21;99578.453125;;;17.260000;48.308594
77517;BME280;68414;53.946;27.634;2023-04-08T14:03:21;99575.218750;;;17.240000;49.710938
77517;BME280;68414;53.946;27.634;2023-04-08T14:04:21;99577.546875;;;17.180000;48.643555
77517;BME280;68414;53.946;27.634;2023-04-08T14:05:21;99575.156250;;;17.170000;48.928711
77517;BME280;68414;53.946;27.634;2023-04-08T14:06:21;99573.937500;;;17.139999;49.523438
77517;BME280;68414;53.946;27.634;2023-04-08T14:07:21;99579.015625;;;17.090000;50.325195
77517;BME280;68414;53.946;27.634;2023-04-08T14:08:21;99576.078125;;;16.950001;49.690430
77517;BME280;68414;53.946;27.634;2023-04-08T14:09:21;99571.609375;;;16.870001;49.889648
77517;BME280;68414;53.946;27.634;2023-04-08T14:10:21;99577.609375;;;16.889999;50.114258
77517;BME280;68414;53.946;27.634;2023-04-08T14:11:21;99570.843750;;;16.900000;50.192383
77517;BME280;68414;53.946;27.634;2023-04-08T14:12:21;99569.187500;;;16.850000;50.629883
77517;BME280;68414;53.946;27.634;2023-04-08T14:13:21;99564.851562;;;16.879999;50.422852
77517;BME280;68414;53.946;27.634;2023-04-08T14:14:21;99567.601562;;;16.840000;50.385742
77517;BME280;68414;53.946;27.634;2023-04-08T14:15:21;99574.718750;;;16.820000;50.780273
77517;BME280;68414;53.946;27.634;2023-04-08T14:16:21;99567.179688;;;16.820000;49.974609
77517;BME280;68414;53.946;27.634;2023-04-08T14:17:21;99573.781250;;;16.709999;49.849609
77517;BME280;68414;53.946;27.634;2023-04-08T14:18:21;99561.835938;;;16.700001;50.170898
77517;BME280;68414;53.946;27.634;2023-04-08T14:19:21;99565.046875;;;16.719999;50.327148
77517;BME280;68414;53.946;27.634;2023-04-08T14:20:21;99561.484375;;;16.719999;50.216797
77517;BME280;68414;53.946;27.634;2023-04-08T14:21:21;99562.218750;;;16.680000;50.521484
77517;BME280;68414;53.946;27.634;2023-04-08T14:22:21;99560.281250;;;16.730000;50.327148
77517;BME280;68414;53.946;27.634;2023-04-08T14:23:21;99557.468750;;;16.690001;50.423828
77517;BME280;68414;53.946;27.634;2023-04-08T14:24:21;99558.171875;;;16.620001;50.405273
77517;BME280;68414;53.946;27.634;2023-04-08T14:25:21;99561.382812;;;16.639999;50.650391
77517;BME280;68414;53.946;27.634;2023-04-08T14:26:21;99560.109375;;;16.580000;50.366211
77517;BME280;68414;53.946;27.634;2023-04-08T14:27:21;99553.742188;;;16.580000;50.333008
77517;BME280;68414;53.946;27.634;2023-04-08T14:28:21;99555.609375;;;16.500000;50.501953
77517;BME280;68414;53.946;27.634;2023-04-08T14:29:21;99562.718750;;;16.480000;50.807617
77517;BME280;68414;53.946;27.634;2023-04-08T14:30:21;99555.078125;;;16.410000;50.335938
77517;BME280;68414;53.946;27.634;2023-04-08T14:31:21;99560.257812;;;16.430000;51.365234
77517;BME280;68414;53.946;27.634;2023-04-08T14:32:21;99559.257812;;;16.280001;51.380859
77517;BME280;68414;53.946;27.634;2023-04-08T14:33:21;99560.843750;;;16.290001;51.635742
77517;BME280;68414;53.946;27.634;2023-04-08T14:34:22;99563.625000;;;16.290001;51.845703
77517;BME280;68414;53.946;27.634;2023-04-08T14:35:21;99554.812500;;;16.240000;51.342773
77517;BME280;68414;53.946;27.634;2023-04-08T14:36:21;99555.937500;;;16.190001;51.580078
77517;BME280;68414;53.946;27.634;2023-04-08T14:37:21;99558.718750;;;16.190001;51.569336
77517;BME280;68414;53.946;27.634;2023-04-08T14:38:21;99562.625000;;;16.150000;52.313477
77517;BME280;68414;53.946;27.634;2023-04-08T14:39:21;99550.265625;;;16.120001;51.616211
77517;BME280;68414;53.946;27.634;2023-04-08T14:40:21;99556.671875;;;16.160000;51.940430
77517;BME280;68414;53.946;27.634;2023-04-08T14:41:21;99549.531250;;;16.150000;51.807617
77517;BME280;68414;53.946;27.634;2023-04-08T14:42:21;99552.312500;;;16.150000;52.336914
77517;BME280;68414;53.946;27.634;2023-04-08T14:43:20;99552.195312;;;16.080000;51.887695
77517;BME280;68414;53.946;27.634;2023-04-08T14:44:21;99557.632812;;;16.010000;52.132812
77517;BME280;68414;53.946;27.634;2023-04-08T14:45:20;99565.117188;;;15.970000;52.050781
77517;BME280;68414;53.946;27.634;2023-04-08T14:46:21;99560.671875;;;15.920000;52.233398
77517;BME280;68414;53.946;27.634;2023-04-08T14:47:20;99566.539062;;;15.870000;52.448242
77517;BME280;68414;53.946;27.634;2023-04-08T14:48:21;99568.109375;;;15.850000;52.665039
77517;BME280;68414;53.946;27.634;2023-04-08T14:49:21;99554.945312;;;15.820000;52.461914
77517;BME280;68414;53.946;27.634;2023-04-08T14:50:21;99560.125000;;;15.830000;52.949219
77517;BME280;68414;53.946;27.634;2023-04-08T14:51:20;99560.812500;;;15.770000;53.349609
77517;BME280;68414;53.946;27.634;2023-04-08T14:52:20;99557.773438;;;15.850000;53.184570
77517;BME280;68414;53.946;27.634;2023-04-08T14:53:21;99557.039062;;;15.880000;52.899414
77517;BME280;68414;53.946;27.634;2023-04-08T14:54:21;99561.789062;;;15.880000;52.988281
77517;BME280;68414;53.946;27.634;2023-04-08T14:55:21;99559.343750;;;15.830000;52.409180
77517;BME280;68414;53.946;27.634;2023-04-08T14:56:20;99557.296875;;;15.800000;52.482422
77517;BME280;68414;53.946;27.634;2023-04-08T14:57:20;99560.453125;;;15.780000;52.646484
77517;BME280;68414;53.946;27.634;2023-04-08T14:58:21;99558.031250;;;15.770000;52.941406
77517;BME280;68414;53.946;27.634;2023-04-08T14:59:20;99564.343750;;;15.740000;53.125000
77517;BME280;68414;53.946;27.634;2023-04-08T15:00:21;99563.062500;;;15.680000;52.962891
77517;BME280;68414;53.946;27.634;2023-04-08T15:01:20;99551.062500;;;15.640000;53.013672
77517;BME280;68414;53.946;27.634;2023-04-08T15:02:20;99562.343750;;;15.740000;52.959961
77517;BME280;68414;53.946;27.634;2023-04-08T15:03:20;99569.578125;;;15.790000;52.844727
77517;BME280;68414;53.946;27.634;2023-04-08T15:04:20;99562.125000;;;15.830000;52.982422
77517;BME280;68414;53.946;27.634;2023-04-08T15:05:20;99561.234375;;;15.790000;53.130859
77517;BME280;68414;53.946;27.634;2023-04-08T15:06:20;99566.445312;;;15.800000;53.088867
77517;BME280;68414;53.946;27.634;2023-04-08T15:07:20;99571.187500;;;15.800000;52.757812
77517;BME280;68414;53.946;27.634;2023-04-08T15:08:21;99565.203125;;;15.780000;52.766602
77517;BME280;68414;53.946;27.634;2023-04-08T15:09:21;99566.312500;;;15.730000;52.949219
77517;BME280;68414;53.946;27.634;2023-04-08T15:10:20;99566.265625;;;15.700000;53.152344
77517;BME280;68414;53.946;27.634;2023-04-08T15:11:20;99561.570312;;;15.740000;53.169922
77517;BME280;68414;53.946;27.634;2023-04-08T15:12:20;99568.671875;;;15.710000;53.155273
77517;BME280;68414;53.946;27.634;2023-04-08T15:13:21;99565.375000;;;15.660000;53.390625
77517;BME280;68414;53.946;27.634;2023-04-08T15:14:20;99570.585938;;;15.670000;53.083008
77517;BME280;68414;53.946;27.634;2023-04-08T15:15:21;99570.320312;;;15.530000;53.243164
77517;BME280;68414;53.946;27.634;2023-04-08T15:16:20;99565.093750;;;15.480000;53.479492
77517;BME280;68414;53.946;27.634;2023-04-08T15:17:20;99565.390625;;;15.430000;53.903320
77517;BME280;68414;53.946;27.634;2023-04-08T15:18:20;99566.515625;;;15.420000;53.681641
77517;BME280;68414;53.946;27.634;2023-04-08T15:19:20;99564.843750;;;15.380000;53.675781
77517;BME280;68414;53.946;27.634;2023-04-08T15:20:20;99555.296875;;;15.350000;54.134766
77517;BME280;68414;53.946;27.634;2023-04-08T15:21:20;99556.671875;;;15.450000;53.916016
77517;BME280;68414;53.946;27.634;2023-04-08T15:22:20;99564.281250;;;15.480000;53.798828
77517;BME280;68414;53.946;27.634;2023-04-08T15:23:20;99567.789062;;;15.450000;53.696289
77517;BME280;68414;53.946;27.634;2023-04-08T15:24:20;99564.062500;;;15.370000;53.630859
77517;BME280;68414;53.946;27.634;2023-04-08T15:25:21;99569.234375;;;15.390000;53.753906
77517;BME280;68414;53.946;27.634;2023-04-08T15:26:20;99563.304688;;;15.400000;53.712891
77517;BME280;68414;53.946;27.634;2023-04-08T15:27:20;99558.421875;;;15.340000;53.660156
77517;BME280;68414;53.946;27.634;2023-04-08T15:28:20;99563.546875;;;15.320000;53.636719
77517;BME280;68414;53.946;27.634;2023-04-08T15:29:21;99561.140625;;;15.300000;54.019531
77517;BME280;68414;53.946;27.634;2023-04-08T15:30:20;99561.953125;;;15.310000;54.118164
77517;BME280;68414;53.946;27.634;2023-04-08T15:31:20;99556.406250;;;15.310000;54.393555
77517;BME280;68414;53.946;27.634;2023-04-08T15:32:20;99562.531250;;;15.400000;54.030273
77517;BME280;68414;53.946;27.634;2023-04-08T15:33:20;99554.921875;;;15.370000;53.994141
77517;BME280;68414;53.946;27.634;2023-04-08T15:34:20;99560.851562;;;15.350000;54.201172
77517;BME280;68414;53.946;27.634;2023-04-08T15:35:20;99555.640625;;;15.340000;54.056641
77517;BME280;68414;53.946;27.634;2023-04-08T15:36:20;99561.523438;;;15.290000;54.126953
77517;BME280;68414;53.946;27.634;2023-04-08T15:37:20;99567.937500;;;15.330000;53.921875
77517;BME280;68414;53.946;27.634;2023-04-08T15:38:20;99562.390625;;;15.330000;53.999023
77517;BME280;68414;53.946;27.634;2023-04-08T15:39:20;99564.734375;;;15.310000;54.250000
77517;BME280;68414;53.946;27.634;2023-04-08T15:40:20;99558.859375;;;15.360000;53.838867
77517;BME280;68414;53.946;27.634;2023-04-08T15:41:21;99562.390625;;;15.330000;53.944336
77517;BME280;68414;53.946;27.634;2023-04-08T15:42:21;99560.765625;;;15.320000;53.911133
77517;BME280;68414;53.946;27.634;2023-04-08T15:43:20;99565.750000;;;15.230000;54.185547
77517;BME280;68414;53.946;27.634;2023-04-08T15:44:20;99566.875000;;;15.180000;54.323242
77517;BME280;68414;53.946;27.634;2023-04-08T15:45:20;99567.976562;;;15.130000;54.537109
77517;BME280;68414;53.946;27.634;2023-04-08T15:46:20;99569.132812;;;15.120000;54.536133
77517;BME280;68414;53.946;27.634;2023-04-08T15:47:20;99562.710938;;;15.080000;54.685547
77517;BME280;68414;53.946;27.634;2023-04-08T15:48:20;99566.531250;;;15.000000;55.159180
77517;BME280;68414;53.946;27.634;2023-04-08T15:49:20;99567.023438;;;15.060000;54.934570
77517;BME280;68414;53.946;27.634;2023-04-08T15:50:20;99563.000000;;;15.030000;55.086914
77517;BME280;68414;53.946;27.634;2023-04-08T15:51:20;99563.601562;;;14.930000;55.215820
77517;BME280;68414;53.946;27.634;2023-04-08T15:52:20;99563.312500;;;14.980000;55.254883
77517;BME280;68414;53.946;27.634;2023-04-08T15:53:20;99560.828125;;;14.930000;55.391602
77517;BME280;68414;53.946;27.634;2023-04-08T15:54:20;99563.734375;;;14.810000;55.221680
77517;BME280;68414;53.946;27.634;2023-04-08T15:55:20;99565.296875;;;14.790000;55.516602
77517;BME280;68414;53.946;27.634;2023-04-08T15:56:20;99563.234375;;;14.760000;55.523438
77517;BME280;68414;53.946;27.634;2023-04-08T15:57:20;99564.484375;;;14.780000;55.537109
77517;BME280;68414;53.946;27.634;2023-04-08T15:58:20;99567.093750;;;14.710000;55.792969
77517;BME280;68414;53.946;27.634;2023-04-08T15:59:20;99571.125000;;;14.740000;55.773438
77517;BME280;68414;53.946;27.634;2023-04-08T16:00:21;99571.773438;;;14.670000;55.874023
77517;BME280;68414;53.946;27.634;2023-04-08T16:01:20;99572.796875;;;14.590000;55.700195
77517;BME280;68414;53.946;27.634;2023-04-08T16:02:20;99581.828125;;;14.560000;56.202148
77517;BME280;68414;53.946;27.634;2023-04-08T16:03:20;99571.171875;;;14.580000;56.204102
77517;BME280;68414;53.946;27.634;2023-04-08T16:04:20;99576.007812;;;14.610000;56.009766
77517;BME280;68414;53.946;27.634;2023-04-08T16:05:20;99577.468750;;;14.550000;55.859375
77517;BME280;68414;53.946;27.634;2023-04-08T16:06:20;99562.257812;;;14.490000;55.764648
77517;BME280;68414;53.946;27.634;2023-04-08T16:07:20;99574.804688;;;14.430000;55.987305
77517;BME280;68414;53.946;27.634;2023-04-08T16:08:20;99575.546875;;;14.400000;56.136719
77517;BME280;68414;53.946;27.634;2023-04-08T16:09:20;99575.453125;;;14.360000;56.526367
77517;BME280;68414;53.946;27.634;2023-04-08T16:10:20;99583.500000;;;14.410000;56.259766
77517;BME280;68414;53.946;27.634;2023-04-08T16:11:20;99575.078125;;;14.380000;56.221680
77517;BME280;68414;53.946;27.634;2023-04-08T16:12:20;99579.468750;;;14.390000;56.409180
77517;BME280;68414;53.946;27.634;2023-04-08T16:13:20;99580.109375;;;14.320000;56.334961
77517;BME280;68414;53.946;27.634;2023-04-08T16:14:20;99578.046875;;;14.290000;56.441406
77517;BME280;68414;53.946;27.634;2023-04-08T16:15:20;99573.757812;;;14.320000;56.411133
77517;BME280;68414;53.946;27.634;2023-04-08T16:16:20;99580.625000;;;14.380000;56.133789
77517;BME280;68414;53.946;27.634;2023-04-08T16:17:20;99591.070312;;;14.440000;56.131836
77517;BME280;68414;53.946;27.634;2023-04-08T16:18:20;99584.203125;;;14.380000;56.343750
77517;BME280;68414;53.946;27.634;2023-04-08T16:19:21;99586.171875;;;14.380000;56.320312
77517;BME280;68414;53.946;27.634;2023-04-08T16:20:20;99579.843750;;;14.370000;56.320312
77517;BME280;68414;53.946;27.634;2023-04-08T16:21:20;99584.578125;;;14.370000;56.659180
77517;BME280;68414;53.946;27.634;2023-04-08T16:22:20;99582.515625;;;14.340000;56.776367
77517;BME280;68414;53.946;27.634;2023-04-08T16:23:20;99587.617188;;;14.320000;56.652344
77517;BME280;68414;53.946;27.634;2023-04-08T16:24:20;99590.828125;;;14.340000;56.688477
77517;BME280;68414;53.946;27.634;2023-04-08T16:25:20;99589.687500;;;14.350000;56.734375
77517;BME280;68414;53.946;27.634;2023-04-08T16:26:20;99590.765625;;;14.300000;56.683594
77517;BME280;68414;53.946;27.634;2023-04-08T16:27:20;99591.578125;;;14.310000;56.916016
77517;BME280;68414;53.946;27.634;2023-04-08T16:28:20;99594.687500;;;14.290000;56.726562
77517;BME280;68414;53.946;27.634;2023-04-08T16:29:20;99595.937500;;;14.320000;56.696289
77517;BME280;68414;53.946;27.634;2023-04-08T16:30:20;99600.398438;;;14.360000;56.581055
77517;BME280;68414;53.946;27.634;2023-04-08T16:31:20;99596.375000;;;14.340000;56.886719
77517;BME280;68414;53.946;27.634;2023-04-08T16:32:20;99601.578125;;;14.350000;56.735352
77517;BME280;68414;53.946;27.634;2023-04-08T16:33:20;99599.148438;;;14.340000;56.765625
77517;BME280;68414;53.946;27.634;2023-04-08T16:34:20;99606.117188;;;14.430000;56.590820
77517;BME280;68414;53.946;27.634;2023-04-08T16:35:20;99596.546875;;;14.410000;57.004883
77517;BME280;68414;53.946;27.634;2023-04-08T16:36:20;99600.500000;;;14.400000;56.750977
77517;BME280;68414;53.946;27.634;2023-04-08T16:37:20;99603.914062;;;14.330000;56.743164
77517;BME280;68414;53.946;27.634;2023-04-08T16:38:21;99605.500000;;;14.340000;56.798828
77517;BME280;68414;53.946;27.634;2023-04-08T16:39:20;99607.195312;;;14.390000;56.859375
77517;BME280;68414;53.946;27.634;2023-04-08T16:40:20;99606.687500;;;14.330000;56.798828
77517;BME280;68414;53.946;27.634;2023-04-08T16:41:20;99607.031250;;;14.320000;56.958984
77517;BME280;68414;53.946;27.634;2023-04-08T16:42:20;99615.781250;;;14.340000;56.875000
77517;BME280;68414;53.946;27.634;2023-04-08T16:43:20;99611.218750;;;14.260000;57.215820
77517;BME280;68414;53.946;27.634;2023-04-08T16:44:20;99608.890625;;;14.280000;57.096680
77517;BME280;68414;53.946;27.634;2023-04-08T16:45:20;99612.031250;;;14.260000;57.139648
77517;BME280;68414;53.946;27.634;2023-04-08T16:46:20;99607.296875;;;14.270000;57.139648
77517;BME280;68414;53.946;27.634;2023-04-08T16:47:20;99612.218750;;;14.180000;57.018555
77517;BME280;68414;53.946;27.634;2023-04-08T16:48:20;99616.578125;;;14.190000;57.129883
77517;BME280;68414;53.946;27.634;2023-04-08T16:49:20;99613.914062;;;14.220000;57.112305
77517;BME280;68414;53.946;27.634;2023-04-08T16:50:20;99608.812500;;;14.240000;57.093750
77517;BME280;68414;53.946;27.634;2023-04-08T16:51:20;99622.570312;;;14.210000;56.990234
77517;BME280;68414;53.946;27.634;2023-04-08T16:53:20;99621.781250;;;14.200000;56.989258
77517;BME280;68414;53.946;27.634;2023-04-08T16:54:20;99624.820312;;;14.150000;57.103516
77517;BME280;68414;53.946;27.634;2023-04-08T16:55:20;99623.125000;;;14.110000;57.129883
77517;BME280;68414;53.946;27.634;2023-04-08T16:56:20;99623.304688;;;14.180000;57.105469
77517;BME280;68414;53.946;27.634;2023-04-08T16:57:20;99623.203125;;;14.140000;57.124023
77517;BME280;68414;53.946;27.634;2023-04-08T16:58:20;99623.828125;;;14.080000;57.280273
77517;BME280;68414;53.946;27.634;2023-04-08T16:59:20;99621.500000;;;14.100000;57.293945
77517;BME280;68414;53.946;27.634;2023-04-08T17:00:20;99632.062500;;;14.040000;57.351562
77517;BME280;68414;53.946;27.634;2023-04-08T17:01:20;99623.234375;;;13.990000;57.531250
77517;BME280;68414;53.946;27.634;2023-04-08T17:02:20;99630.921875;;;14.050000;57.341797
77517;BME280;68414;53.946;27.634;2023-04-08T17:03:20;99634.921875;;;14.080000;57.422852
77517;BME280;68414;53.946;27.634;2023-04-08T17:04:20;99631.703125;;;14.060000;57.297852
77517;BME280;68414;53.946;27.634;2023-04-08T17:05:21;99643.968750;;;14.050000;57.484375
77517;BME280;68414;53.946;27.634;2023-04-08T17:06:20;99630.296875;;;13.960000;57.483398
77517;BME280;68414;53.946;27.634;2023-04-08T17:07:20;99638.421875;;;13.890000;57.562500
77517;BME280;68414;53.946;27.634;2023-04-08T17:08:20;99634.757812;;;13.850000;57.852539
77517;BME280;68414;53.946;27.634;2023-04-08T17:09:20;99639.851562;;;13.830000;57.860352
77517;BME280;68414;53.946;27.634;2023-04-08T17:11:20;99643.937500;;;13.740000;58.067383
77517;BME280;68414;53.946;27.634;2023-04-08T17:12:20;99648.953125;;;13.680000;58.027344
77517;BME280;68414;53.946;27.634;2023-04-08T17:13:20;99636.984375;;;13.640000;58.229492
77517;BME280;68414;53.946;27.634;2023-04-08T17:14:20;99642.515625;;;13.640000;58.217773
77517;BME280;68414;53.946;27.634;2023-04-08T17:15:20;99644.476562;;;13.630000;58.261719
77517;BME280;68414;53.946;27.634;2023-04-08T17:16:20;99645.531250;;;13.590000;58.496094
77517;BME280;68414;53.946;27.634;2023-04-08T17:17:20;99641.953125;;;13.580000;58.540039
77517;BME280;68414;53.946;27.634;2023-04-08T17:18:20;99645.093750;;;13.570000;58.559570
77517;BME280;68414;53.946;27.634;2023-04-08T17:19:20;99641.062500;;;13.540000;58.622070
77517;BME280;68414;53.946;27.634;2023-04-08T17:20:20;99644.640625;;;13.550000;58.612305
77517;BME280;68414;53.946;27.634;2023-04-08T17:21:20;99638.296875;;;13.540000;58.479492
77517;BME280;68414;53.946;27.634;2023-04-08T17:22:20;99642.484375;;;13.480000;58.668945
77517;BME280;68414;53.946;27.634;2023-04-08T17:23:20;99650.796875;;;13.480000;58.887695
77517;BME280;68414;53.946;27.634;2023-04-08T17:24:20;99651.484375;;;13.450000;58.969727
77517;BME280;68414;53.946;27.634;2023-04-08T17:25:20;99654.531250;;;13.400000;59.007812
77517;BME280;68414;53.946;27.634;2023-04-08T17:26:20;99655.671875;;;13.390000;59.061523
77517;BME280;68414;53.946;27.634;2023-04-08T17:27:20;99657.093750;;;13.330000;59.228516
77517;BME280;68414;53.946;27.634;2023-04-08T17:28:20;99653.875000;;;13.310000;59.323242
77517;BME280;68414;53.946;27.634;2023-04-08T17:29:20;99655.593750;;;13.360000;59.286133
77517;BME280;68414;53.946;27.634;2023-04-08T17:30:20;99649.937500;;;13.320000;59.326172
77517;BME280;68414;53.946;27.634;2023-04-08T17:31:20;99653.609375;;;13.360000;59.287109
77517;BME280;68414;53.946;27.634;2023-04-08T17:32:21;99657.093750;;;13.330000;59.469727
77517;BME280;68414;53.946;27.634;2023-04-08T17:33:20;99661.734375;;;13.290000;59.539062
77517;BME280;68414;53.946;27.634;2023-04-08T17:34:20;99649.843750;;;13.290000;59.517578
77517;BME280;68414;53.946;27.634;2023-04-08T17:35:20;99656.437500;;;13.240000;59.697266